Time;durP1;ratioP1;P1;durP2;ratioP2;P2;SDS_P1;SDS_P2;PMS_P1;PMS_P2;Temp;Humidity;BMP_temperature;BMP_pressure;BME280_temperature;BME280_humidity;BME280_pressure;Samples;Min_cycle;Max_cycle;Signal;HPM_P1;HPM_P2
2021/11/09 00:02:11;;;;;;;30.40;13.73;;;;;;;;;;5050302;28;20120;-69
2021/11/09 00:04:39;;;;;;;26.42;13.68;;;;;;;;;;5047209;28;20061;-69
2021/11/09 00:07:22;;;;;;;29.48;14.60;;;;;;;;;;5048339;28;20029;-69
2021/11/09 00:09:59;;;;;;;26.88;13.25;;;;;;;;;;5044657;28;20021;-70
2021/11/09 00:12:27;;;;;;;26.60;12.77;;;;;;;;;;5045354;28;20076;-70
2021/11/09 00:14:53;;;;;;;29.70;13.88;;;;;;;;;;5046433;28;20055;-70
2021/11/09 00:17:18;;;;;;;28.77;13.68;;;;;;;;;;5050418;28;20028;-69
2021/11/09 00:19:43;;;;;;;23.95;13.45;;;;;;;;;;5049662;28;20032;-70
2021/11/09 00:22:08;;;;;;;28.42;13.68;;;;;;;;;;5050126;28;20040;-70
2021/11/09 00:24:33;;;;;;;25.45;13.85;;;;;;;;;;5044132;28;20037;-69
2021/11/09 00:26:59;;;;;;;30.55;14.18;;;;;;;;;;5046846;28;20024;-70
2021/11/09 00:29:24;;;;;;;25.48;13.95;;;;;;;;;;5045197;28;20095;-69
2021/11/09 00:31:49;;;;;;;24.67;12.55;;;;;;;;;;5047478;28;20036;-69
2021/11/09 00:34:14;;;;;;;22.77;11.80;;;;;;;;;;5042239;28;20028;-69
2021/11/09 00:36:39;;;;;;;21.45;11.50;;;;;;;;;;5048489;28;20409;-70
2021/11/09 00:39:07;;;;;;;24.35;12.25;;;;;;;;;;5047902;28;20104;-70
2021/11/09 00:41:32;;;;;;;23.45;11.18;;;;;;;;;;5050229;28;20379;-69
2021/11/09 00:43:57;;;;;;;21.23;11.00;;;;;;;;;;5049635;28;20017;-69
2021/11/09 00:46:23;;;;;;;22.00;12.05;;;;;;;;;;5047791;28;20380;-70
2021/11/09 00:48:48;;;;;;;24.48;11.32;;;;;;;;;;5051243;28;20403;-69
2021/11/09 00:51:13;;;;;;;20.67;11.80;;;;;;;;;;5046993;28;20025;-69
2021/11/09 00:53:39;;;;;;;19.63;11.50;;;;;;;;;;5050371;28;20053;-71
2021/11/09 00:56:04;;;;;;;21.30;11.15;;;;;;;;;;5038404;28;20021;-70
2021/11/09 00:58:30;;;;;;;22.80;12.23;;;;;;;;;;5041118;28;20125;-70
2021/11/09 01:00:55;;;;;;;20.00;11.02;;;;;;;;;;5043976;28;20712;-70
2021/11/09 01:03:20;;;;;;;19.80;9.93;;;;;;;;;;5050152;28;20025;-70
2021/11/09 01:05:45;;;;;;;26.50;10.50;;;;;;;;;;5044045;28;20052;-70
2021/11/09 01:08:13;;;;;;;20.33;10.88;;;;;;;;;;5049112;28;20029;-69
2021/11/09 01:10:40;;;;;;;22.02;10.80;;;;;;;;;;5048731;28;20124;-70
2021/11/09 01:13:05;;;;;;;21.42;10.38;;;;;;;;;;5047418;28;20067;-70
2021/11/09 01:15:31;;;;;;;23.48;10.95;;;;;;;;;;5048768;28;20032;-69
2021/11/09 01:17:57;;;;;;;19.52;11.38;;;;;;;;;;5048177;28;20487;-70
2021/11/09 01:20:23;;;;;;;20.38;11.15;;;;;;;;;;5047671;28;20439;-70
2021/11/09 01:22:51;;;;;;;22.63;11.13;;;;;;;;;;5044269;28;20086;-69
2021/11/09 01:25:17;;;;;;;21.35;9.98;;;;;;;;;;5048658;28;20468;-70
2021/11/09 01:27:43;;;;;;;17.98;9.60;;;;;;;;;;5046576;28;20082;-69
2021/11/09 01:30:08;;;;;;;24.33;11.02;;;;;;;;;;5043414;28;20036;-69
2021/11/09 01:32:34;;;;;;;20.85;9.52;;;;;;;;;;5047495;28;20123;-69
2021/11/09 01:34:59;;;;;;;22.50;10.40;;;;;;;;;;5048823;28;20163;-68
2021/11/09 01:37:25;;;;;;;20.92;9.95;;;;;;;;;;5047570;28;20029;-68
2021/11/09 01:39:50;;;;;;;19.48;9.45;;;;;;;;;;5040688;28;20025;-70
2021/11/09 01:42:15;;;;;;;20.92;9.70;;;;;;;;;;5046642;28;20028;-70
2021/11/09 01:44:40;;;;;;;20.88;9.30;;;;;;;;;;5048959;28;20048;-70
2021/11/09 01:47:06;;;;;;;18.85;8.65;;;;;;;;;;5045044;28;20029;-70
2021/11/09 01:49:31;;;;;;;16.73;8.95;;;;;;;;;;5046819;28;20029;-69
2021/11/09 01:51:56;;;;;;;19.95;9.38;;;;;;;;;;5049011;28;20119;-69
2021/11/09 01:54:21;;;;;;;18.67;8.70;;;;;;;;;;5043789;28;20031;-69
2021/11/09 01:56:47;;;;;;;23.42;9.45;;;;;;;;;;5054361;28;20028;-70
2021/11/09 01:59:12;;;;;;;17.73;10.05;;;;;;;;;;5042610;28;20047;-70
2021/11/09 02:01:37;;;;;;;15.35;8.52;;;;;;;;;;5048200;28;20071;-71
2021/11/09 02:04:04;;;;;;;17.05;8.23;;;;;;;;;;5047567;28;20372;-70
2021/11/09 02:06:30;;;;;;;23.17;9.45;;;;;;;;;;5048464;28;20029;-70
2021/11/09 02:09:04;;;;;;;16.70;8.52;;;;;;;;;;5048114;28;20016;-69
2021/11/09 02:11:30;;;;;;;14.35;8.45;;;;;;;;;;5047856;28;20032;-69
2021/11/09 02:13:55;;;;;;;17.90;8.52;;;;;;;;;;5040375;28;20108;-70
2021/11/09 02:16:20;;;;;;;16.90;8.40;;;;;;;;;;5041240;28;20516;-69
2021/11/09 02:18:46;;;;;;;16.38;8.45;;;;;;;;;;5047182;28;20042;-70
2021/11/09 02:21:11;;;;;;;19.25;7.93;;;;;;;;;;5048091;28;20021;-70
2021/11/09 02:23:38;;;;;;;20.67;9.35;;;;;;;;;;5041823;28;20017;-70
2021/11/09 02:26:04;;;;;;;20.70;8.43;;;;;;;;;;5043824;28;20036;-70
2021/11/09 02:28:30;;;;;;;17.45;8.30;;;;;;;;;;5047290;28;20017;-69
2021/11/09 02:30:56;;;;;;;18.58;8.02;;;;;;;;;;5046353;28;20048;-69
2021/11/09 02:33:21;;;;;;;17.90;8.52;;;;;;;;;;5046859;28;20060;-69
2021/11/09 02:35:47;;;;;;;18.50;8.57;;;;;;;;;;5047325;28;20540;-70
2021/11/09 02:38:12;;;;;;;21.85;8.40;;;;;;;;;;5042879;28;20033;-70
2021/11/09 02:40:38;;;;;;;21.00;8.13;;;;;;;;;;5044767;28;20158;-68
2021/11/09 02:43:06;;;;;;;19.02;8.63;;;;;;;;;;5048107;28;20481;-70
2021/11/09 02:45:43;;;;;;;16.30;7.85;;;;;;;;;;5044650;28;20105;-70
2021/11/09 02:48:14;;;;;;;18.92;8.07;;;;;;;;;;5047856;28;20036;-71
2021/11/09 02:50:44;;;;;;;19.15;8.48;;;;;;;;;;5046983;28;20376;-69
2021/11/09 02:55:48;;;;;;;19.92;8.75;;;;;;;;;;5040626;28;20120;-70
2021/11/09 03:00:55;;;;;;;15.30;9.20;;;;;;;;;;5045362;28;20070;-71
2021/11/09 03:03:35;;;;;;;18.98;9.05;;;;;;;;;;5038463;28;20026;-69
2021/11/09 03:08:41;;;;;;;18.23;8.30;;;;;;;;;;5048540;28;20027;-70
2021/11/09 03:11:07;;;;;;;23.23;9.38;;;;;;;;;;5047747;28;20075;-70
2021/11/09 03:13:33;;;;;;;16.88;9.00;;;;;;;;;;5044011;28;20057;-70
2021/11/09 03:16:05;;;;;;;18.38;8.82;;;;;;;;;;5051417;28;20021;-71
2021/11/09 03:18:36;;;;;;;19.15;9.45;;;;;;;;;;5053140;28;20059;-69
2021/11/09 03:45:22;;;;;;;18.52;8.95;;;;;;;;;;5051241;28;20036;-69
2021/11/09 03:47:52;;;;;;;19.92;10.73;;;;;;;;;;5051528;28;20023;-69
2021/11/09 03:50:18;;;;;;;20.63;10.10;;;;;;;;;;5046692;28;20464;-70
2021/11/09 03:52:49;;;;;;;16.67;8.73;;;;;;;;;;5051198;28;20069;-68
2021/11/09 03:55:22;;;;;;;24.83;9.63;;;;;;;;;;5051245;28;20107;-68
2021/11/09 03:57:52;;;;;;;20.95;9.88;;;;;;;;;;5049293;28;20087;-70
2021/11/09 04:00:35;;;;;;;;;;;;;;;;;;5050520;28;20496;-68
2021/11/09 04:03:02;;;;;;;26.77;10.20;;;;;;;;;;5044267;28;19920;-69
2021/11/09 04:05:35;;;;;;;25.13;9.82;;;;;;;;;;5043176;28;20029;-70
2021/11/09 04:08:09;;;;;;;21.05;9.85;;;;;;;;;;5045482;28;20071;-69
2021/11/09 04:10:58;;;;;;;22.70;10.10;;;;;;;;;;5048913;28;20037;-71
2021/11/09 04:13:30;;;;;;;23.77;10.50;;;;;;;;;;5048097;28;20124;-69
2021/11/09 04:18:39;;;;;;;24.23;10.73;;;;;;;;;;5049449;28;20346;-69
2021/11/09 04:23:56;;;;;;;19.65;10.90;;;;;;;;;;5045960;28;20067;-69
2021/11/09 04:26:46;;;;;;;20.17;10.75;;;;;;;;;;5045346;28;20028;-70
2021/11/09 04:40:18;;;;;;;22.63;11.30;;;;;;;;;;5045726;28;20039;-69
2021/11/09 04:44:04;;;;;;;25.05;11.05;;;;;;;;;;5049748;28;20483;-69
2021/11/09 05:10:21;;;;;;;23.42;11.20;;;;;;;;;;5047043;28;20032;-70
2021/11/09 05:12:38;;;;;;;21.73;10.93;;;;;;;;;;5036844;28;20041;-69
2021/11/09 05:15:04;;;;;;;30.55;12.45;;;;;;;;;;5042456;28;20029;-70
2021/11/09 05:17:29;;;;;;;25.30;11.55;;;;;;;;;;5040843;28;20037;-70
2021/11/09 05:19:55;;;;;;;24.67;12.10;;;;;;;;;;5048811;28;20706;-69
2021/11/09 05:22:20;;;;;;;23.65;11.10;;;;;;;;;;5038796;28;20148;-71
2021/11/09 05:24:45;;;;;;;19.10;10.30;;;;;;;;;;5044511;28;20037;-70
2021/11/09 05:27:11;;;;;;;20.15;10.15;;;;;;;;;;5041598;28;20032;-69
2021/11/09 05:29:37;;;;;;;21.05;9.88;;;;;;;;;;5043750;28;20434;-69
2021/11/09 05:32:03;;;;;;;18.98;9.95;;;;;;;;;;5046033;28;20048;-70
2021/11/09 05:34:30;;;;;;;20.38;10.48;;;;;;;;;;5045453;28;20415;-69
2021/11/09 05:36:55;;;;;;;21.60;10.20;;;;;;;;;;5046842;28;20032;-69
2021/11/09 05:39:37;;;;;;;25.17;10.65;;;;;;;;;;5036440;28;20025;-69
2021/11/09 05:42:03;;;;;;;20.00;10.23;;;;;;;;;;5045585;28;20028;-70
2021/11/09 05:44:28;;;;;;;19.88;10.50;;;;;;;;;;5046082;28;20510;-70
2021/11/09 05:46:54;;;;;;;19.02;10.93;;;;;;;;;;5044051;28;20029;-70
2021/11/09 05:49:19;;;;;;;19.83;10.90;;;;;;;;;;5046950;28;20028;-70
2021/11/09 05:51:44;;;;;;;19.15;11.50;;;;;;;;;;5047744;28;20123;-63
2021/11/09 05:54:10;;;;;;;18.45;11.25;;;;;;;;;;5048472;28;20436;-66
2021/11/09 05:56:35;;;;;;;24.38;11.68;;;;;;;;;;5045165;28;20120;-66
2021/11/09 05:59:01;;;;;;;25.80;12.23;;;;;;;;;;5047471;28;20048;-65
2021/11/09 06:01:26;;;;;;;19.42;11.50;;;;;;;;;;5047920;28;20021;-65
2021/11/09 06:03:51;;;;;;;22.10;11.57;;;;;;;;;;5048579;28;20488;-65
2021/11/09 06:06:16;;;;;;;23.05;12.10;;;;;;;;;;5034038;28;20033;-65
2021/11/09 06:08:42;;;;;;;24.98;12.43;;;;;;;;;;5045619;28;20143;-65
2021/11/09 06:11:07;;;;;;;19.00;11.75;;;;;;;;;;5046897;28;20013;-65
2021/11/09 06:13:32;;;;;;;19.73;11.77;;;;;;;;;;5039402;28;20501;-65
2021/11/09 06:15:57;;;;;;;25.98;13.38;;;;;;;;;;5047156;28;20112;-66
2021/11/09 06:18:23;;;;;;;25.08;14.20;;;;;;;;;;5046738;28;20896;-66
2021/11/09 06:20:48;;;;;;;24.90;14.20;;;;;;;;;;5043137;28;20017;-65
2021/11/09 06:23:13;;;;;;;25.80;15.10;;;;;;;;;;5045252;28;20464;-65
2021/11/09 06:25:39;;;;;;;30.05;14.77;;;;;;;;;;5047354;28;20476;-65
2021/11/09 06:28:06;;;;;;;28.95;14.73;;;;;;;;;;5041462;28;20070;-65
2021/11/09 06:30:31;;;;;;;37.92;15.98;;;;;;;;;;5046619;28;20117;-66
2021/11/09 06:32:56;;;;;;;27.45;16.10;;;;;;;;;;5043688;28;20112;-65
2021/11/09 06:35:22;;;;;;;29.15;16.25;;;;;;;;;;5044192;28;20021;-66
2021/11/09 06:37:47;;;;;;;25.73;15.35;;;;;;;;;;5047440;28;20051;-65
2021/11/09 06:40:12;;;;;;;28.10;16.55;;;;;;;;;;5047634;28;20045;-65
2021/11/09 06:42:38;;;;;;;33.92;16.35;;;;;;;;;;5045323;28;20087;-66
2021/11/09 06:45:04;;;;;;;29.50;16.58;;;;;;;;;;5047086;28;20024;-65
2021/11/09 06:47:29;;;;;;;32.50;18.42;;;;;;;;;;5047792;28;20017;-66
2021/11/09 06:49:55;;;;;;;43.03;18.23;;;;;;;;;;5042717;28;20024;-65
2021/11/09 06:52:20;;;;;;;42.10;19.38;;;;;;;;;;5044797;28;20389;-66
2021/11/09 06:54:46;;;;;;;38.42;18.52;;;;;;;;;;5046240;28;20088;-69
2021/11/09 06:57:11;;;;;;;49.92;20.10;;;;;;;;;;5047071;28;20028;-65
2021/11/09 06:59:37;;;;;;;35.15;18.77;;;;;;;;;;5048027;28;20096;-66
2021/11/09 07:02:03;;;;;;;32.75;17.35;;;;;;;;;;5042197;28;20028;-67
2021/11/09 07:04:29;;;;;;;34.90;17.90;;;;;;;;;;5044572;28;20057;-66
2021/11/09 07:06:55;;;;;;;34.65;18.60;;;;;;;;;;5043621;28;20144;-67
2021/11/09 07:09:20;;;;;;;32.58;18.42;;;;;;;;;;5045859;28;20539;-67
2021/11/09 07:11:45;;;;;;;34.72;18.38;;;;;;;;;;5049083;28;20024;-66
2021/11/09 07:14:10;;;;;;;34.63;19.23;;;;;;;;;;5046749;28;20036;-67
2021/11/09 07:16:36;;;;;;;41.30;20.98;;;;;;;;;;5043442;28;20512;-67
2021/11/09 07:19:03;;;;;;;41.13;20.38;;;;;;;;;;5041487;28;20024;-65
2021/11/09 07:21:30;;;;;;;37.70;19.08;;;;;;;;;;5043194;28;20025;-66
2021/11/09 07:23:55;;;;;;;34.80;19.45;;;;;;;;;;5046283;28;20029;-69
2021/11/09 07:26:20;;;;;;;36.55;19.30;;;;;;;;;;5048117;28;20495;-64
2021/11/09 07:28:46;;;;;;;36.58;18.63;;;;;;;;;;5048215;28;20032;-66
2021/11/09 07:31:14;;;;;;;38.03;19.23;;;;;;;;;;5047596;28;20482;-67
2021/11/09 07:33:39;;;;;;;35.88;18.83;;;;;;;;;;5036766;28;20074;-65
2021/11/09 07:36:05;;;;;;;38.78;19.95;;;;;;;;;;5045366;28;20622;-66
2021/11/09 07:38:30;;;;;;;35.05;19.48;;;;;;;;;;5048109;28;20025;-67
2021/11/09 07:40:55;;;;;;;40.92;18.95;;;;;;;;;;5047951;28;20482;-66
2021/11/09 07:43:20;;;;;;;36.63;18.23;;;;;;;;;;5046968;28;20033;-66
2021/11/09 07:45:46;;;;;;;38.97;18.75;;;;;;;;;;5047194;28;20033;-67
2021/11/09 07:48:12;;;;;;;41.67;19.98;;;;;;;;;;5050436;28;20100;-66
2021/11/09 07:50:37;;;;;;;40.50;19.55;;;;;;;;;;5050822;28;20021;-66
2021/11/09 07:53:03;;;;;;;37.28;18.67;;;;;;;;;;5050190;28;20035;-66
2021/11/09 07:55:32;;;;;;;35.17;19.38;;;;;;;;;;5050831;28;20092;-66
2021/11/09 07:58:05;;;;;;;36.22;18.92;;;;;;;;;;5046073;28;20029;-67
2021/11/09 08:00:39;;;;;;;30.48;17.83;;;;;;;;;;5025101;28;20124;-65
2021/11/09 08:03:13;;;;;;;33.38;18.15;;;;;;;;;;5032902;28;20424;-65
2021/11/09 08:05:56;;;;;;;33.45;18.05;;;;;;;;;;5027195;28;20164;-65
2021/11/09 08:08:25;;;;;;;26.60;15.32;;;;;;;;;;5026262;28;20105;-66
2021/11/09 08:10:50;;;;;;;;;;;;;;;;;;5031551;28;20049;-65
2021/11/09 08:13:16;;;;;;;28.08;15.07;;;;;;;;;;5031441;28;19975;-66
2021/11/09 08:15:41;;;;;;;26.05;14.52;;;;;;;;;;5031374;28;20311;-65
2021/11/09 08:18:07;;;;;;;23.13;14.05;;;;;;;;;;5032450;28;20053;-65
2021/11/09 08:20:32;;;;;;;25.77;13.82;;;;;;;;;;5035525;28;20461;-66
2021/11/09 08:22:57;;;;;;;22.55;12.63;;;;;;;;;;5031256;28;20092;-66
2021/11/09 08:25:23;;;;;;;20.70;12.43;;;;;;;;;;5029632;28;20119;-66
2021/11/09 08:27:48;;;;;;;19.80;12.32;;;;;;;;;;5030244;28;20036;-67
2021/11/09 08:30:14;;;;;;;30.05;13.20;;;;;;;;;;5030758;28;20448;-66
2021/11/09 08:32:41;;;;;;;22.48;11.65;;;;;;;;;;5030490;28;20041;-65
2021/11/09 08:35:07;;;;;;;22.23;12.45;;;;;;;;;;5029783;28;20017;-66
2021/11/09 08:37:32;;;;;;;19.80;11.30;;;;;;;;;;5030797;28;20561;-67
2021/11/09 08:40:00;;;;;;;21.30;11.35;;;;;;;;;;5023714;28;20067;-66
2021/11/09 08:42:30;;;;;;;17.98;10.80;;;;;;;;;;5030498;28;20477;-66
2021/11/09 08:45:08;;;;;;;19.98;11.18;;;;;;;;;;5030533;28;20116;-66
2021/11/09 08:47:38;;;;;;;16.88;10.07;;;;;;;;;;5024419;28;20027;-65
2021/11/09 08:50:03;;;;;;;18.35;10.95;;;;;;;;;;5029927;28;20482;-67
2021/11/09 08:52:31;;;;;;;20.10;11.75;;;;;;;;;;5028567;28;20065;-65
2021/11/09 09:05:09;;;;;;;20.30;10.80;;;;;;;;;;5049939;28;20036;-66
2021/11/09 09:07:35;;;;;;;15.95;10.38;;;;;;;;;;5048700;28;20032;-66
2021/11/09 09:10:01;;;;;;;17.40;11.07;;;;;;;;;;5041794;28;20469;-66
2021/11/09 09:12:28;;;;;;;18.55;10.82;;;;;;;;;;5048383;28;20076;-66
2021/11/09 09:14:54;;;;;;;15.70;10.88;;;;;;;;;;5050619;28;20086;-65
2021/11/09 09:17:19;;;;;;;21.33;12.20;;;;;;;;;;5050303;28;20120;-66
2021/11/09 09:19:50;;;;;;;18.08;10.80;;;;;;;;;;5049913;28;20112;-66
2021/11/09 09:22:16;;;;;;;18.13;10.70;;;;;;;;;;5040644;28;20044;-65
2021/11/09 09:27:32;;;;;;;19.08;11.68;;;;;;;;;;5055654;28;20535;-66
2021/11/09 09:30:04;;;;;;;;;;;;;;;;;;5050076;28;20584;-65
2021/11/09 09:32:56;;;;;;;24.67;10.40;;;;;;;;;;5048066;28;19917;-67
2021/11/09 09:52:09;;;;;;;20.55;11.23;;;;;;;;;;5043385;28;20046;-65
2021/11/09 09:57:08;;;;;;;16.25;9.70;;;;;;;;;;5048353;28;20078;-66
2021/11/09 09:59:35;;;;;;;15.88;9.45;;;;;;;;;;5048570;28;20049;-65
2021/11/09 10:02:12;;;;;;;13.43;9.45;;;;;;;;;;5051067;28;20028;-66
2021/11/09 10:04:42;;;;;;;15.23;8.77;;;;;;;;;;5037097;28;20029;-66
2021/11/09 10:07:08;;;;;;;14.48;8.88;;;;;;;;;;5048896;28;20021;-65
2021/11/09 10:09:35;;;;;;;16.67;8.25;;;;;;;;;;5048239;28;20103;-65
2021/11/09 10:12:16;;;;;;;12.60;7.53;;;;;;;;;;5047333;28;20049;-65
2021/11/09 10:14:41;;;;;;;16.52;8.57;;;;;;;;;;5045229;28;20029;-65
2021/11/09 10:17:13;;;;;;;13.77;7.93;;;;;;;;;;5046694;28;20488;-65
2021/11/09 10:19:38;;;;;;;16.75;8.25;;;;;;;;;;5048403;28;20388;-66
2021/11/09 10:22:24;;;;;;;13.70;7.57;;;;;;;;;;5048295;28;20079;-66
2021/11/09 10:24:54;;;;;;;11.18;6.88;;;;;;;;;;5041239;28;20028;-65
2021/11/09 10:27:22;;;;;;;12.57;6.88;;;;;;;;;;5048258;28;20365;-65
2021/11/09 10:29:50;;;;;;;11.40;6.75;;;;;;;;;;5048680;28;20106;-66
2021/11/09 10:32:16;;;;;;;12.35;6.50;;;;;;;;;;5047461;28;20455;-66
2021/11/09 10:34:42;;;;;;;10.23;6.30;;;;;;;;;;5047789;28;20035;-66
2021/11/09 10:37:23;;;;;;;13.90;6.28;;;;;;;;;;5048358;28;20507;-66
2021/11/09 10:39:49;;;;;;;14.57;6.68;;;;;;;;;;5027961;28;20025;-66
2021/11/09 10:42:15;;;;;;;12.48;5.93;;;;;;;;;;5048144;28;20051;-65
2021/11/09 10:44:42;;;;;;;12.73;6.22;;;;;;;;;;5048181;28;20089;-65
2021/11/09 10:47:22;;;;;;;10.98;5.72;;;;;;;;;;5039899;28;20502;-67
2021/11/09 10:49:52;;;;;;;11.75;5.18;;;;;;;;;;5048272;28;20514;-65
2021/11/09 10:52:19;;;;;;;11.00;5.50;;;;;;;;;;5047975;28;20040;-65
2021/11/09 11:00:34;;;;;;;13.48;5.65;;;;;;;;;;5047917;28;20051;-66
2021/11/09 11:06:17;;;;;;;8.20;4.80;;;;;;;;;;5056627;28;20474;-65
2021/11/09 11:08:43;;;;;;;8.80;4.38;;;;;;;;;;5062483;28;20060;-66
2021/11/09 11:11:20;;;;;;;10.05;5.00;;;;;;;;;;5064688;28;20047;-67
2021/11/09 11:13:46;;;;;;;6.10;4.00;;;;;;;;;;5064983;28;20044;-67
2021/11/09 11:16:13;;;;;;;8.45;4.20;;;;;;;;;;5065435;28;20027;-66
2021/11/09 11:18:40;;;;;;;9.98;4.10;;;;;;;;;;5070391;28;20127;-65
2021/11/09 11:21:07;;;;;;;7.57;4.15;;;;;;;;;;5061810;28;20111;-65
2021/11/09 11:23:33;;;;;;;7.32;3.97;;;;;;;;;;5068917;28;20028;-67
2021/11/09 11:25:59;;;;;;;9.30;4.10;;;;;;;;;;5069342;28;20083;-65
2021/11/09 11:28:27;;;;;;;10.20;4.60;;;;;;;;;;5069388;28;20032;-65
2021/11/09 11:30:53;;;;;;;7.03;3.85;;;;;;;;;;5061745;28;20029;-66
2021/11/09 11:33:19;;;;;;;10.35;3.92;;;;;;;;;;5068822;28;20088;-66
2021/11/09 11:35:45;;;;;;;5.68;3.38;;;;;;;;;;5068675;28;20060;-66
2021/11/09 11:38:10;;;;;;;6.75;3.85;;;;;;;;;;5068759;28;20032;-66
2021/11/09 11:40:36;;;;;;;8.75;4.20;;;;;;;;;;5051861;28;20078;-66
2021/11/09 11:43:01;;;;;;;9.57;4.07;;;;;;;;;;5043545;28;20033;-66
2021/11/09 11:45:27;;;;;;;6.38;4.07;;;;;;;;;;5051247;28;20020;-65
2021/11/09 11:48:07;;;;;;;8.80;4.20;;;;;;;;;;5051594;28;20426;-65
2021/11/09 11:50:40;;;;;;;9.25;3.83;;;;;;;;;;5050391;28;20384;-65
2021/11/09 11:53:05;;;;;;;14.18;4.50;;;;;;;;;;5050616;28;20029;-65
2021/11/09 11:55:31;;;;;;;7.00;4.00;;;;;;;;;;5049881;28;20021;-66
2021/11/09 11:58:03;;;;;;;7.30;4.00;;;;;;;;;;5051158;28;20064;-66
2021/11/09 12:00:28;;;;;;;11.43;4.85;;;;;;;;;;5050722;28;20599;-66
2021/11/09 12:02:54;;;;;;;9.15;4.70;;;;;;;;;;5048173;28;20112;-66
2021/11/09 12:05:45;;;;;;;7.68;4.00;;;;;;;;;;5047052;28;20014;-66
2021/11/09 12:08:15;;;;;;;7.90;4.13;;;;;;;;;;5049248;28;20090;-65
2021/11/09 12:10:40;;;;;;;;;;;;;;;;;;5045304;28;20469;-66
2021/11/09 12:13:08;;;;;;;11.70;4.88;;;;;;;;;;5048752;28;20422;-65
2021/11/09 12:16:03;;;;;;;9.77;4.78;;;;;;;;;;5050032;28;20260;-67
2021/11/09 12:18:31;;;;;;;8.32;4.32;;;;;;;;;;5048324;28;20108;-66
2021/11/09 12:21:00;;;;;;;8.23;4.22;;;;;;;;;;5030455;28;20029;-65
2021/11/09 12:23:30;;;;;;;8.68;4.63;;;;;;;;;;5046450;28;20480;-66
2021/11/09 12:25:55;;;;;;;10.20;4.60;;;;;;;;;;5039631;28;20540;-65
2021/11/09 12:28:29;;;;;;;7.68;4.45;;;;;;;;;;5047178;28;20056;-66
2021/11/09 12:30:55;;;;;;;7.85;4.95;;;;;;;;;;5044683;28;20231;-66
2021/11/09 12:33:21;;;;;;;10.13;4.82;;;;;;;;;;5046092;28;20460;-66
2021/11/09 12:35:59;;;;;;;8.23;4.68;;;;;;;;;;5046051;28;20029;-66
2021/11/09 12:38:34;;;;;;;8.88;4.70;;;;;;;;;;5044606;28;20025;-66
2021/11/09 12:41:20;;;;;;;11.88;5.47;;;;;;;;;;5041157;28;20483;-65
2021/11/09 12:43:47;;;;;;;7.57;4.88;;;;;;;;;;5046193;28;20037;-66
2021/11/09 12:46:22;;;;;;;11.02;5.50;;;;;;;;;;5044380;28;20586;-66
2021/11/09 12:48:52;;;;;;;11.10;5.80;;;;;;;;;;5034155;28;20039;-66
2021/11/09 12:51:23;;;;;;;9.45;5.53;;;;;;;;;;5028181;28;20473;-66
2021/11/09 12:53:50;;;;;;;9.82;5.18;;;;;;;;;;5028151;28;20400;-66
2021/11/09 12:56:22;;;;;;;8.15;5.38;;;;;;;;;;5046345;28;20469;-66
2021/11/09 12:58:50;;;;;;;10.75;5.78;;;;;;;;;;5049568;28;20051;-65
2021/11/09 13:04:04;;;;;;;13.82;5.32;;;;;;;;;;5050104;28;20070;-66
2021/11/09 13:06:36;;;;;;;11.95;5.55;;;;;;;;;;5049833;28;20021;-66
2021/11/09 13:09:08;;;;;;;9.27;5.82;;;;;;;;;;5049963;28;20025;-67
2021/11/09 13:11:39;;;;;;;10.68;5.30;;;;;;;;;;5046027;28;20032;-65
2021/11/09 13:14:08;;;;;;;8.02;5.20;;;;;;;;;;5048842;28;20061;-67
2021/11/09 13:16:34;;;;;;;12.77;6.05;;;;;;;;;;5049771;28;20515;-66
2021/11/09 13:19:06;;;;;;;9.90;5.45;;;;;;;;;;5045542;28;20029;-67
2021/11/09 13:21:33;;;;;;;14.70;6.38;;;;;;;;;;5043330;28;20025;-66
2021/11/09 13:23:58;;;;;;;11.85;6.82;;;;;;;;;;5043064;28;20025;-66
2021/11/09 13:26:23;;;;;;;11.50;6.05;;;;;;;;;;5048488;28;20578;-66
2021/11/09 13:28:48;;;;;;;11.35;5.45;;;;;;;;;;5049240;28;20097;-66
2021/11/09 13:31:15;;;;;;;9.85;5.90;;;;;;;;;;5048333;28;20025;-68
2021/11/09 13:33:41;;;;;;;10.48;5.53;;;;;;;;;;5043970;28;20037;-65
2021/11/09 13:36:07;;;;;;;11.48;6.50;;;;;;;;;;5047955;28;20047;-66
2021/11/09 13:38:38;;;;;;;10.88;5.13;;;;;;;;;;5048981;28;20028;-68
2021/11/09 13:41:05;;;;;;;12.18;6.35;;;;;;;;;;5049527;28;20025;-66
2021/11/09 13:43:33;;;;;;;11.32;6.28;;;;;;;;;;5048755;28;20094;-70
2021/11/09 13:46:01;;;;;;;9.90;6.55;;;;;;;;;;5047505;28;20099;-67
2021/11/09 13:48:27;;;;;;;13.88;6.80;;;;;;;;;;5049057;28;20033;-66
2021/11/09 13:50:56;;;;;;;12.52;6.63;;;;;;;;;;5048199;28;20082;-65
2021/11/09 13:53:35;;;;;;;11.00;6.32;;;;;;;;;;5045923;28;20064;-65
2021/11/09 13:56:01;;;;;;;10.13;5.95;;;;;;;;;;5049511;28;20109;-67
2021/11/09 13:58:26;;;;;;;10.73;5.78;;;;;;;;;;5047487;28;20040;-67
2021/11/09 14:00:56;;;;;;;11.05;6.00;;;;;;;;;;5049008;28;20017;-67
2021/11/09 14:19:03;;;;;;;13.52;6.25;;;;;;;;;;5049370;28;20082;-65
2021/11/09 14:21:30;;;;;;;13.13;6.55;;;;;;;;;;5048838;28;20025;-66
2021/11/09 14:23:56;;;;;;;12.60;6.50;;;;;;;;;;5049018;28;20053;-66
2021/11/09 14:26:26;;;;;;;11.88;6.63;;;;;;;;;;5047082;28;20454;-65
2021/11/09 14:28:53;;;;;;;8.95;5.90;;;;;;;;;;5047584;28;20464;-67
2021/11/09 14:31:21;;;;;;;8.00;5.75;;;;;;;;;;5049112;28;20021;-67
2021/11/09 14:33:49;;;;;;;11.90;6.07;;;;;;;;;;5048547;28;20147;-67
2021/11/09 14:36:28;;;;;;;10.05;5.60;;;;;;;;;;5048212;28;20017;-68
2021/11/09 14:39:27;;;;;;;9.82;5.00;;;;;;;;;;5040804;28;20117;-65
2021/11/09 14:42:00;;;;;;;10.18;5.85;;;;;;;;;;5045616;28;20104;-66
2021/11/09 14:44:26;;;;;;;10.73;5.35;;;;;;;;;;5045679;28;20185;-67
2021/11/09 14:46:53;;;;;;;11.20;5.82;;;;;;;;;;5044368;28;20079;-67
2021/11/09 14:49:25;;;;;;;8.45;5.13;;;;;;;;;;5040906;28;20029;-66
2021/11/09 14:51:56;;;;;;;10.85;5.70;;;;;;;;;;5039336;28;20500;-66
2021/11/09 14:54:27;;;;;;;9.70;6.18;;;;;;;;;;5033191;28;20017;-66
2021/11/09 14:57:02;;;;;;;13.70;5.78;;;;;;;;;;5039047;28;20033;-67
2021/11/09 14:59:27;;;;;;;10.18;6.13;;;;;;;;;;5037087;28;20064;-66
2021/11/09 15:02:03;;;;;;;21.08;7.15;;;;;;;;;;5043216;28;20029;-67
2021/11/09 15:09:40;;;;;;;10.00;5.85;;;;;;;;;;5036226;28;20040;-66
2021/11/09 15:28:26;;;;;;;11.60;7.40;;;;;;;;;;5052252;28;20031;-67
2021/11/09 15:30:57;;;;;;;14.23;7.57;;;;;;;;;;5052306;28;20088;-66
2021/11/09 15:33:29;;;;;;;16.42;8.45;;;;;;;;;;5050930;28;20033;-67
2021/11/09 15:38:23;;;;;;;13.05;7.15;;;;;;;;;;5051910;28;20016;-67
2021/11/09 15:40:48;;;;;;;15.32;7.65;;;;;;;;;;5051624;28;20100;-66
2021/11/09 15:43:14;;;;;;;15.73;7.32;;;;;;;;;;5051736;28;20548;-66
2021/11/09 15:45:39;;;;;;;12.10;7.07;;;;;;;;;;5048260;28;20029;-66
2021/11/09 15:48:04;;;;;;;11.57;7.18;;;;;;;;;;5053234;28;20025;-67
2021/11/09 15:50:30;;;;;;;12.30;7.88;;;;;;;;;;5055417;28;20061;-66
2021/11/09 15:52:55;;;;;;;13.63;6.78;;;;;;;;;;5047851;28;20966;-67
2021/11/09 15:55:20;;;;;;;12.75;7.07;;;;;;;;;;5051864;28;20028;-68
2021/11/09 15:57:45;;;;;;;12.10;6.78;;;;;;;;;;5051623;28;20090;-67
2021/11/09 16:00:12;;;;;;;13.80;6.60;;;;;;;;;;5051365;28;20595;-67
2021/11/09 16:02:37;;;;;;;13.45;6.90;;;;;;;;;;5049779;28;20028;-67
2021/11/09 16:05:05;;;;;;;12.93;6.78;;;;;;;;;;5051131;28;20468;-66
2021/11/09 16:07:30;;;;;;;29.08;7.80;;;;;;;;;;5050984;28;20021;-67
2021/11/09 16:09:57;;;;;;;9.52;5.93;;;;;;;;;;5051428;28;20023;-67
2021/11/09 16:12:23;;;;;;;12.65;6.20;;;;;;;;;;5051318;28;20061;-67
2021/11/09 16:14:49;;;;;;;10.57;6.03;;;;;;;;;;5050304;28;20471;-67
2021/11/09 16:17:14;;;;;;;12.40;6.40;;;;;;;;;;5051365;28;20033;-66
2021/11/09 16:19:40;;;;;;;12.15;5.80;;;;;;;;;;5054170;28;20033;-66
2021/11/09 16:22:09;;;;;;;15.23;5.97;;;;;;;;;;5050937;28;20035;-68
2021/11/09 16:24:34;;;;;;;12.18;5.78;;;;;;;;;;5044646;28;20083;-68
2021/11/09 16:26:59;;;;;;;10.48;5.20;;;;;;;;;;5046660;28;20056;-67
2021/11/09 16:29:44;;;;;;;10.10;5.35;;;;;;;;;;5051258;28;20469;-67
2021/11/09 16:32:10;;;;;;;9.90;5.43;;;;;;;;;;5050768;28;20163;-67
2021/11/09 16:34:37;;;;;;;14.00;5.78;;;;;;;;;;5050042;28;20470;-67
2021/11/09 16:37:02;;;;;;;11.40;5.60;;;;;;;;;;5051124;28;20017;-66
2021/11/09 16:39:37;;;;;;;11.48;5.72;;;;;;;;;;5050039;28;20151;-67
2021/11/09 16:42:03;;;;;;;11.23;5.88;;;;;;;;;;5050604;28;20039;-66
2021/11/09 16:44:28;;;;;;;10.48;5.88;;;;;;;;;;5049505;28;20021;-74
2021/11/09 16:46:58;;;;;;;10.77;5.50;;;;;;;;;;5043411;28;20043;-74
2021/11/09 16:52:11;;;;;;;9.88;5.15;;;;;;;;;;5044816;28;20032;-74
2021/11/09 16:54:41;;;;;;;12.05;5.88;;;;;;;;;;5050478;28;20044;-73
2021/11/09 16:59:50;;;;;;;12.85;5.80;;;;;;;;;;5050965;28;20048;-73
2021/11/09 17:05:24;;;;;;;10.57;5.93;;;;;;;;;;5050850;28;20028;-74
2021/11/09 18:20:38;;;;;;;13.63;7.35;;;;;;;;;;5070340;28;20078;-71
2021/11/09 18:23:03;;;;;;;15.63;7.82;;;;;;;;;;5074428;28;20036;-71
2021/11/09 18:25:29;;;;;;;12.85;7.65;;;;;;;;;;5073994;28;20028;-71
2021/11/09 18:27:55;;;;;;;14.30;8.48;;;;;;;;;;5074723;28;20178;-71
2021/11/09 18:30:23;;;;;;;14.35;7.72;;;;;;;;;;5078429;28;20052;-72
2021/11/09 18:32:49;;;;;;;13.40;7.57;;;;;;;;;;5074643;28;20039;-72